createdAt,value
2019-06-01T18:03:57.189Z,22.01
2019-06-01T18:06:34.585Z,22.06
2019-06-01T18:09:13.883Z,22.01
2019-06-01T18:11:57.174Z,21.94
2019-06-01T18:14:36.404Z,21.87
2019-06-01T18:17:10.459Z,21.74
2019-06-01T18:25:38.110Z,21.46
2019-06-01T18:28:19.887Z,21.42
2019-06-01T18:30:59.452Z,21.34
2019-06-01T18:33:32.452Z,21.21
2019-06-01T18:38:58.693Z,20.98
2019-06-01T18:41:48.476Z,20.88
2019-06-01T18:44:19.871Z,20.81
2019-06-01T18:46:58.732Z,20.75
2019-06-01T18:49:36.454Z,20.73
2019-06-01T18:52:14.788Z,20.67
2019-06-01T18:54:56.781Z,20.60
2019-06-01T18:57:30.655Z,20.54
2019-06-01T19:03:04.540Z,20.40
2019-06-01T19:05:39.971Z,20.34
2019-06-01T19:08:23.172Z,20.25
2019-06-01T19:11:02.085Z,20.15
2019-06-01T19:13:48.978Z,20.05
2019-06-01T19:16:29.484Z,19.97
2019-06-01T19:19:02.794Z,19.83
2019-06-01T19:21:38.394Z,19.69
2019-06-01T19:24:26.193Z,19.59
2019-06-01T19:27:12.834Z,19.50
2019-06-01T19:29:47.330Z,19.42
2019-06-01T19:32:42.186Z,19.33
2019-06-01T19:35:26.708Z,19.22
2019-06-01T19:38:11.384Z,19.13
2019-06-01T19:40:44.342Z,19.04
2019-06-01T19:46:12.095Z,18.89
2019-06-01T19:49:01.030Z,18.80
2019-06-01T19:51:39.755Z,18.75
2019-06-01T19:54:18.942Z,18.66
2019-06-01T19:59:54.264Z,18.53
2019-06-01T20:02:47.243Z,18.44
2019-06-01T20:05:51.654Z,18.38
2019-06-01T20:08:47.718Z,18.32
2019-06-01T20:11:37.216Z,18.27
2019-06-01T20:17:13.610Z,18.19
2019-06-01T20:20:10.718Z,18.17
2019-06-01T20:22:47.377Z,18.10
2019-06-01T20:25:28.769Z,18.00
2019-06-01T20:28:06.001Z,17.94
2019-06-01T20:30:49.719Z,17.87
2019-06-01T20:36:29.395Z,17.78
2019-06-01T20:39:14.224Z,17.73
2019-06-01T20:41:46.333Z,17.71
2019-06-01T20:47:18.933Z,17.63
2019-06-01T20:52:36.932Z,17.47
2019-06-01T20:55:12.894Z,17.35
2019-06-01T20:57:45.370Z,17.25
2019-06-01T21:03:15.814Z,17.13
2019-06-01T21:06:04.615Z,17.11
2019-06-01T21:08:48.945Z,17.08
2019-06-01T21:11:17.934Z,17.04
2019-06-01T21:14:01.301Z,17.02
2019-06-01T21:16:37.976Z,17.02
2019-06-01T21:19:18.847Z,17.02
2019-06-01T21:21:55.536Z,17.01
2019-06-01T21:24:32.519Z,17.01
2019-06-01T21:27:05.776Z,16.97
2019-06-01T21:29:42.786Z,16.93
2019-06-01T21:32:15.239Z,16.87
2019-06-01T21:34:45.915Z,16.82
2019-06-01T21:37:21.621Z,16.77
2019-06-01T21:40:02.136Z,16.70
2019-06-01T21:43:00.203Z,16.63
2019-06-01T21:45:23.649Z,16.55
2019-06-01T21:48:07.196Z,16.48
2019-06-01T21:50:48.800Z,16.42
2019-06-01T21:53:30.349Z,16.40
2019-06-01T21:56:06.843Z,16.36
2019-06-01T21:58:50.838Z,16.34
2019-06-01T22:01:30.009Z,16.29
2019-06-01T22:04:18.741Z,16.18
2019-06-01T22:06:58.833Z,16.10
2019-06-01T22:09:35.532Z,16.03
2019-06-01T22:12:17.216Z,15.99
2019-06-01T22:14:50.758Z,15.98
2019-06-01T22:17:35.691Z,15.95
2019-06-01T22:26:14.607Z,15.85
2019-06-01T22:31:46.813Z,15.90
2019-06-01T22:34:35.465Z,15.95
2019-06-01T22:37:12.670Z,15.96
2019-06-01T22:39:52.957Z,15.95
2019-06-01T22:45:18.109Z,15.93
2019-06-01T22:47:57.805Z,15.90
2019-06-01T22:50:30.174Z,15.86
2019-06-01T22:53:06.118Z,15.81
2019-06-01T22:56:16.978Z,15.77
2019-06-01T23:01:17.538Z,15.69
2019-06-01T23:06:54.196Z,15.59
2019-06-01T23:09:44.302Z,15.55
2019-06-01T23:12:14.089Z,15.50
2019-06-01T23:14:46.228Z,15.42
2019-06-01T23:17:30.060Z,15.38
2019-06-01T23:20:02.720Z,15.34
2019-06-01T23:22:42.157Z,15.29
2019-06-01T23:25:18.565Z,15.23
2019-06-01T23:27:52.820Z,15.16
2019-06-01T23:30:30.194Z,15.11
2019-06-01T23:33:12.839Z,15.07
2019-06-01T23:35:52.261Z,15.06
2019-06-01T23:38:29.274Z,15.01
2019-06-01T23:41:00.459Z,14.96
2019-06-01T23:43:33.401Z,14.91
2019-06-01T23:46:12.527Z,14.86
2019-06-01T23:51:42.538Z,14.80
2019-06-01T23:54:20.134Z,14.81
2019-06-01T23:56:50.961Z,14.79
2019-06-01T23:59:19.728Z,14.75
